sensor_id;sensor_type;location;lat;lon;timestamp;pressure;altitude;pressure_sealevel;temperature;humidity
78679;BME280;67994;59.334;13.528;2023-10-09T00:00:00;101300.0;;;4.1;79.9
78679;BME280;67994;59.334;13.528;2023-10-09T00:01:00;101300.0;;;4.1;80.3
78679;BME280;67994;59.334;13.528;2023-10-09T00:02:00;101300.0;;;4.1;80.7
78679;BME280;67994;59.334;13.528;2023-10-09T00:03:00;101300.0;;;4.1;80.3
78679;BME280;67994;59.334;13.528;2023-10-09T00:04:00;101300.0;;;4.1;80.1
78679;BME280;67994;59.334;13.528;2023-10-09T00:05:00;101300.0;;;4.1;80.7
78679;BME280;67994;59.334;13.528;2023-10-09T00:06:00;101300.0;;;4.1;80.5
78679;BME280;67994;59.334;13.528;2023-10-09T00:07:00;101300.0;;;4.1;80.9
78679;BME280;67994;59.334;13.528;2023-10-09T00:08:00;101300.0;;;4.1;80.6
78679;BME280;67994;59.334;13.528;2023-10-09T00:09:00;101300.0;;;4.1;80.8
78679;BME280;67994;59.334;13.528;2023-10-09T00:10:00;101300.0;;;4.2;80.6
78679;BME280;67994;59.334;13.528;2023-10-09T00:11:01;101300.0;;;4.1;80.7
78679;BME280;67994;59.334;13.528;2023-10-09T00:12:00;101300.0;;;4.1;80.7
78679;BME280;67994;59.334;13.528;2023-10-09T00:13:00;101300.0;;;4.1;81.0
78679;BME280;67994;59.334;13.528;2023-10-09T00:14:00;101300.0;;;4.2;80.9
78679;BME280;67994;59.334;13.528;2023-10-09T00:15:00;101300.0;;;4.2;80.8
78679;BME280;67994;59.334;13.528;2023-10-09T00:16:04;101300.0;;;4.2;80.9
78679;BME280;67994;59.334;13.528;2023-10-09T00:17:00;101300.0;;;4.2;80.9
78679;BME280;67994;59.334;13.528;2023-10-09T00:18:00;101300.0;;;4.2;80.8
78679;BME280;67994;59.334;13.528;2023-10-09T00:19:00;101300.0;;;4.2;80.2
78679;BME280;67994;59.334;13.528;2023-10-09T00:20:00;101300.0;;;4.2;80.5
78679;BME280;67994;59.334;13.528;2023-10-09T00:21:00;101300.0;;;4.2;80.6
78679;BME280;67994;59.334;13.528;2023-10-09T00:22:00;101300.0;;;4.2;80.5
78679;BME280;67994;59.334;13.528;2023-10-09T00:23:00;101300.0;;;4.2;80.1
78679;BME280;67994;59.334;13.528;2023-10-09T00:24:00;101300.0;;;4.3;80.3
78679;BME280;67994;59.334;13.528;2023-10-09T00:25:00;101300.0;;;4.3;80.2
78679;BME280;67994;59.334;13.528;2023-10-09T00:26:00;101300.0;;;4.3;79.9
78679;BME280;67994;59.334;13.528;2023-10-09T00:27:00;101300.0;;;4.3;80.1
78679;BME280;67994;59.334;13.528;2023-10-09T00:28:00;101300.0;;;4.3;80.1
78679;BME280;67994;59.334;13.528;2023-10-09T00:29:01;101300.0;;;4.3;80.1
78679;BME280;67994;59.334;13.528;2023-10-09T00:30:00;101300.0;;;4.3;79.2
78679;BME280;67994;59.334;13.528;2023-10-09T00:31:00;101300.0;;;4.4;79.7
78679;BME280;67994;59.334;13.528;2023-10-09T00:32:00;101300.0;;;4.3;79.4
78679;BME280;67994;59.334;13.528;2023-10-09T00:33:00;101300.0;;;4.3;79.5
78679;BME280;67994;59.334;13.528;2023-10-09T00:34:00;101300.0;;;4.3;80.0
78679;BME280;67994;59.334;13.528;2023-10-09T00:35:00;101300.0;;;4.3;80.0
78679;BME280;67994;59.334;13.528;2023-10-09T00:36:02;101300.0;;;4.2;79.9
78679;BME280;67994;59.334;13.528;2023-10-09T00:37:00;101300.0;;;4.3;79.9
78679;BME280;67994;59.334;13.528;2023-10-09T00:38:00;101300.0;;;4.2;79.6
78679;BME280;67994;59.334;13.528;2023-10-09T00:39:00;101300.0;;;4.2;80.0
78679;BME280;67994;59.334;13.528;2023-10-09T00:40:00;101300.0;;;4.2;79.8
78679;BME280;67994;59.334;13.528;2023-10-09T00:41:00;101300.0;;;4.2;80.2
78679;BME280;67994;59.334;13.528;2023-10-09T00:42:00;101300.0;;;4.2;80.2
78679;BME280;67994;59.334;13.528;2023-10-09T00:43:00;101300.0;;;4.2;80.1
78679;BME280;67994;59.334;13.528;2023-10-09T00:44:00;101300.0;;;4.1;79.7
78679;BME280;67994;59.334;13.528;2023-10-09T00:45:00;101300.0;;;4.2;80.5
78679;BME280;67994;59.334;13.528;2023-10-09T00:46:02;101300.0;;;4.1;80.9
78679;BME280;67994;59.334;13.528;2023-10-09T00:47:00;101300.0;;;4.0;80.3
78679;BME280;67994;59.334;13.528;2023-10-09T00:48:00;101300.0;;;4.0;80.3
78679;BME280;67994;59.334;13.528;2023-10-09T00:49:00;101300.0;;;4.0;80.0
78679;BME280;67994;59.334;13.528;2023-10-09T00:50:05;101300.0;;;4.0;79.5
78679;BME280;67994;59.334;13.528;2023-10-09T00:51:00;101300.0;;;3.9;80.0
78679;BME280;67994;59.334;13.528;2023-10-09T00:52:00;101300.0;;;3.9;80.0
78679;BME280;67994;59.334;13.528;2023-10-09T00:53:00;101300.0;;;3.9;80.5
78679;BME280;67994;59.334;13.528;2023-10-09T00:54:01;101300.0;;;3.9;80.5
78679;BME280;67994;59.334;13.528;2023-10-09T00:55:00;101300.0;;;3.9;80.6
78679;BME280;67994;59.334;13.528;2023-10-09T00:56:01;101200.0;;;3.9;80.5
78679;BME280;67994;59.334;13.528;2023-10-09T00:57:00;101200.0;;;3.7;80.7
78679;BME280;67994;59.334;13.528;2023-10-09T00:58:00;101200.0;;;3.8;80.5
78679;BME280;67994;59.334;13.528;2023-10-09T00:59:00;101200.0;;;3.8;80.7
78679;BME280;67994;59.334;13.528;2023-10-09T01:00:00;101200.0;;;3.7;81.3
78679;BME280;67994;59.334;13.528;2023-10-09T01:01:00;101200.0;;;3.6;81.6
78679;BME280;67994;59.334;13.528;2023-10-09T01:02:00;101200.0;;;3.5;82.4
78679;BME280;67994;59.334;13.528;2023-10-09T01:03:01;101200.0;;;3.4;82.9
78679;BME280;67994;59.334;13.528;2023-10-09T01:04:01;101200.0;;;3.3;83.1
78679;BME280;67994;59.334;13.528;2023-10-09T01:05:00;101200.0;;;3.2;83.7
78679;BME280;67994;59.334;13.528;2023-10-09T01:06:01;101200.0;;;3.2;83.9
78679;BME280;67994;59.334;13.528;2023-10-09T01:07:00;101200.0;;;3.4;83.5
78679;BME280;67994;59.334;13.528;2023-10-09T01:08:00;101200.0;;;3.4;83.5
78679;BME280;67994;59.334;13.528;2023-10-09T01:09:00;101200.0;;;3.3;82.9
78679;BME280;67994;59.334;13.528;2023-10-09T01:10:00;101200.0;;;3.3;82.9
78679;BME280;67994;59.334;13.528;2023-10-09T01:11:00;101200.0;;;3.2;83.2
78679;BME280;67994;59.334;13.528;2023-10-09T01:12:00;101200.0;;;3.3;83.4
78679;BME280;67994;59.334;13.528;2023-10-09T01:13:00;101200.0;;;3.2;83.4
78679;BME280;67994;59.334;13.528;2023-10-09T01:14:00;101200.0;;;3.2;83.5
78679;BME280;67994;59.334;13.528;2023-10-09T01:15:00;101200.0;;;3.2;83.3
78679;BME280;67994;59.334;13.528;2023-10-09T01:16:03;101200.0;;;3.3;83.1
78679;BME280;67994;59.334;13.528;2023-10-09T01:17:00;101200.0;;;3.3;83.5
78679;BME280;67994;59.334;13.528;2023-10-09T01:18:02;101200.0;;;3.1;83.1
78679;BME280;67994;59.334;13.528;2023-10-09T01:19:00;101200.0;;;3.2;83.8
78679;BME280;67994;59.334;13.528;2023-10-09T01:20:00;101200.0;;;3.2;83.5
78679;BME280;67994;59.334;13.528;2023-10-09T01:21:00;101200.0;;;3.1;83.6
78679;BME280;67994;59.334;13.528;2023-10-09T01:22:00;101200.0;;;3.2;82.9
78679;BME280;67994;59.334;13.528;2023-10-09T01:23:00;101200.0;;;3.1;83.1
78679;BME280;67994;59.334;13.528;2023-10-09T01:24:00;101200.0;;;3.2;83.1
78679;BME280;67994;59.334;13.528;2023-10-09T01:25:00;101200.0;;;3.2;82.7
78679;BME280;67994;59.334;13.528;2023-10-09T01:26:00;101200.0;;;3.2;82.6
78679;BME280;67994;59.334;13.528;2023-10-09T01:27:00;101200.0;;;3.1;82.9
78679;BME280;67994;59.334;13.528;2023-10-09T01:28:00;101200.0;;;3.1;82.7
78679;BME280;67994;59.334;13.528;2023-10-09T01:29:00;101200.0;;;3.0;82.8
78679;BME280;67994;59.334;13.528;2023-10-09T01:30:00;101200.0;;;3.1;83.1
78679;BME280;67994;59.334;13.528;2023-10-09T01:31:00;101200.0;;;3.1;82.7
78679;BME280;67994;59.334;13.528;2023-10-09T01:32:00;101200.0;;;3.0;82.7
78679;BME280;67994;59.334;13.528;2023-10-09T01:33:00;101200.0;;;3.0;83.2
78679;BME280;67994;59.334;13.528;2023-10-09T01:34:00;101200.0;;;3.0;84.1
78679;BME280;67994;59.334;13.528;2023-10-09T01:35:00;101200.0;;;3.0;84.5
78679;BME280;67994;59.334;13.528;2023-10-09T01:36:00;101200.0;;;3.0;84.1
78679;BME280;67994;59.334;13.528;2023-10-09T01:37:00;101200.0;;;3.0;83.9
78679;BME280;67994;59.334;13.528;2023-10-09T01:38:00;101200.0;;;3.1;83.7
78679;BME280;67994;59.334;13.528;2023-10-09T01:39:00;101200.0;;;3.0;83.7
78679;BME280;67994;59.334;13.528;2023-10-09T01:40:00;101200.0;;;3.0;83.7
78679;BME280;67994;59.334;13.528;2023-10-09T01:41:00;101200.0;;;3.1;83.6
78679;BME280;67994;59.334;13.528;2023-10-09T01:42:00;101200.0;;;3.0;83.5
78679;BME280;67994;59.334;13.528;2023-10-09T01:43:00;101200.0;;;3.0;83.1
78679;BME280;67994;59.334;13.528;2023-10-09T01:44:00;101200.0;;;3.0;84.1
78679;BME280;67994;59.334;13.528;2023-10-09T01:45:00;101200.0;;;3.0;84.0
78679;BME280;67994;59.334;13.528;2023-10-09T01:46:00;101200.0;;;3.0;83.6
78679;BME280;67994;59.334;13.528;2023-10-09T01:47:00;101200.0;;;2.8;84.3
78679;BME280;67994;59.334;13.528;2023-10-09T01:48:00;101200.0;;;2.8;84.5
78679;BME280;67994;59.334;13.528;2023-10-09T01:49:00;101200.0;;;2.8;85.4
78679;BME280;67994;59.334;13.528;2023-10-09T01:50:00;101200.0;;;2.8;85.4
78679;BME280;67994;59.334;13.528;2023-10-09T01:51:00;101200.0;;;2.8;85.1
78679;BME280;67994;59.334;13.528;2023-10-09T01:52:01;101200.0;;;2.9;84.5
78679;BME280;67994;59.334;13.528;2023-10-09T01:53:00;101200.0;;;2.8;84.2
78679;BME280;67994;59.334;13.528;2023-10-09T01:54:00;101200.0;;;2.9;84.8
78679;BME280;67994;59.334;13.528;2023-10-09T01:55:00;101200.0;;;2.9;86.7
78679;BME280;67994;59.334;13.528;2023-10-09T01:56:08;101200.0;;;2.7;85.8
78679;BME280;67994;59.334;13.528;2023-10-09T01:57:00;101200.0;;;2.9;86.4
78679;BME280;67994;59.334;13.528;2023-10-09T01:58:00;101200.0;;;2.9;85.5
78679;BME280;67994;59.334;13.528;2023-10-09T01:59:00;101200.0;;;2.9;85.4
78679;BME280;67994;59.334;13.528;2023-10-09T02:00:00;101200.0;;;3.0;85.0
78679;BME280;67994;59.334;13.528;2023-10-09T02:01:00;101200.0;;;2.9;85.8
78679;BME280;67994;59.334;13.528;2023-10-09T02:02:00;101200.0;;;2.8;86.8
78679;BME280;67994;59.334;13.528;2023-10-09T02:03:00;101200.0;;;2.9;86.2
78679;BME280;67994;59.334;13.528;2023-10-09T02:04:01;101200.0;;;2.9;86.6
78679;BME280;67994;59.334;13.528;2023-10-09T02:05:01;101200.0;;;2.8;85.7
78679;BME280;67994;59.334;13.528;2023-10-09T02:06:00;101200.0;;;2.9;84.5
78679;BME280;67994;59.334;13.528;2023-10-09T02:07:00;101200.0;;;2.9;84.1
78679;BME280;67994;59.334;13.528;2023-10-09T02:08:00;101200.0;;;2.9;84.1
78679;BME280;67994;59.334;13.528;2023-10-09T02:09:00;101200.0;;;2.9;84.3
78679;BME280;67994;59.334;13.528;2023-10-09T02:10:00;101200.0;;;2.8;84.7
78679;BME280;67994;59.334;13.528;2023-10-09T02:11:00;101200.0;;;2.8;85.1
78679;BME280;67994;59.334;13.528;2023-10-09T02:12:00;101200.0;;;2.8;84.5
78679;BME280;67994;59.334;13.528;2023-10-09T02:13:01;101200.0;;;2.8;84.5
78679;BME280;67994;59.334;13.528;2023-10-09T02:14:00;101200.0;;;2.8;84.5
78679;BME280;67994;59.334;13.528;2023-10-09T02:15:00;101200.0;;;2.8;84.3
78679;BME280;67994;59.334;13.528;2023-10-09T02:16:00;101200.0;;;2.7;84.8
78679;BME280;67994;59.334;13.528;2023-10-09T02:17:00;101200.0;;;2.6;85.4
78679;BME280;67994;59.334;13.528;2023-10-09T02:18:00;101200.0;;;2.6;86.1
78679;BME280;67994;59.334;13.528;2023-10-09T02:19:00;101200.0;;;2.5;86.7
78679;BME280;67994;59.334;13.528;2023-10-09T02:20:00;101200.0;;;2.5;87.0
78679;BME280;67994;59.334;13.528;2023-10-09T02:21:05;101200.0;;;2.5;86.6
78679;BME280;67994;59.334;13.528;2023-10-09T02:22:01;101200.0;;;2.5;86.8
78679;BME280;67994;59.334;13.528;2023-10-09T02:23:00;101200.0;;;2.6;86.6
78679;BME280;67994;59.334;13.528;2023-10-09T02:24:01;101200.0;;;2.6;86.2
78679;BME280;67994;59.334;13.528;2023-10-09T02:25:00;101200.0;;;2.6;85.7
78679;BME280;67994;59.334;13.528;2023-10-09T02:26:00;101200.0;;;2.6;86.0
78679;BME280;67994;59.334;13.528;2023-10-09T02:27:00;101100.0;;;2.6;86.1
78679;BME280;67994;59.334;13.528;2023-10-09T02:28:00;101100.0;;;2.4;85.9
78679;BME280;67994;59.334;13.528;2023-10-09T02:29:01;101100.0;;;2.5;85.6
78679;BME280;67994;59.334;13.528;2023-10-09T02:30:00;101100.0;;;2.5;85.7
78679;BME280;67994;59.334;13.528;2023-10-09T02:31:00;101100.0;;;2.5;85.1
78679;BME280;67994;59.334;13.528;2023-10-09T02:32:00;101100.0;;;2.4;85.3
78679;BME280;67994;59.334;13.528;2023-10-09T02:33:00;101200.0;;;2.3;85.1
78679;BME280;67994;59.334;13.528;2023-10-09T02:34:00;101200.0;;;2.3;85.1
78679;BME280;67994;59.334;13.528;2023-10-09T02:35:00;101200.0;;;2.3;85.1
78679;BME280;67994;59.334;13.528;2023-10-09T02:36:00;101200.0;;;2.3;84.9
78679;BME280;67994;59.334;13.528;2023-10-09T02:37:00;101200.0;;;2.3;84.9
78679;BME280;67994;59.334;13.528;2023-10-09T02:38:00;101200.0;;;2.2;84.5
78679;BME280;67994;59.334;13.528;2023-10-09T02:39:00;101200.0;;;2.3;84.6
78679;BME280;67994;59.334;13.528;2023-10-09T02:40:00;101200.0;;;2.2;84.7
78679;BME280;67994;59.334;13.528;2023-10-09T02:41:00;101100.0;;;2.2;84.7
78679;BME280;67994;59.334;13.528;2023-10-09T02:42:00;101100.0;;;2.1;84.6
78679;BME280;67994;59.334;13.528;2023-10-09T02:43:00;101100.0;;;2.1;84.8
78679;BME280;67994;59.334;13.528;2023-10-09T02:44:00;101100.0;;;2.0;85.0
78679;BME280;67994;59.334;13.528;2023-10-09T02:45:00;101100.0;;;2.0;85.2
78679;BME280;67994;59.334;13.528;2023-10-09T02:46:00;101100.0;;;2.1;85.0
78679;BME280;67994;59.334;13.528;2023-10-09T02:47:00;101100.0;;;2.0;85.9
78679;BME280;67994;59.334;13.528;2023-10-09T02:48:00;101100.0;;;2.0;86.0
78679;BME280;67994;59.334;13.528;2023-10-09T02:49:01;101100.0;;;2.0;85.8
78679;BME280;67994;59.334;13.528;2023-10-09T02:50:00;101100.0;;;2.1;85.2
78679;BME280;67994;59.334;13.528;2023-10-09T02:51:00;101100.0;;;2.2;84.9
78679;BME280;67994;59.334;13.528;2023-10-09T02:52:00;101100.0;;;2.3;85.0
78679;BME280;67994;59.334;13.528;2023-10-09T02:53:00;101100.0;;;2.2;84.7
78679;BME280;67994;59.334;13.528;2023-10-09T02:54:02;101100.0;;;2.3;84.4
78679;BME280;67994;59.334;13.528;2023-10-09T02:55:00;101100.0;;;2.3;84.1
78679;BME280;67994;59.334;13.528;2023-10-09T02:56:00;101100.0;;;2.3;83.5
78679;BME280;67994;59.334;13.528;2023-10-09T02:57:00;101100.0;;;2.3;83.2
78679;BME280;67994;59.334;13.528;2023-10-09T02:58:00;101100.0;;;2.1;83.6
78679;BME280;67994;59.334;13.528;2023-10-09T02:59:00;101100.0;;;1.9;83.8
78679;BME280;67994;59.334;13.528;2023-10-09T03:00:00;101100.0;;;1.9;84.8
78679;BME280;67994;59.334;13.528;2023-10-09T03:01:00;101100.0;;;1.9;85.1
78679;BME280;67994;59.334;13.528;2023-10-09T03:02:00;101100.0;;;1.9;86.3
78679;BME280;67994;59.334;13.528;2023-10-09T03:03:00;101100.0;;;2.0;86.8
78679;BME280;67994;59.334;13.528;2023-10-09T03:04:00;101100.0;;;1.9;86.9
78679;BME280;67994;59.334;13.528;2023-10-09T03:05:00;101100.0;;;1.9;86.5
78679;BME280;67994;59.334;13.528;2023-10-09T03:06:00;101100.0;;;2.0;86.5
78679;BME280;67994;59.334;13.528;2023-10-09T03:07:00;101100.0;;;2.0;87.0
78679;BME280;67994;59.334;13.528;2023-10-09T03:08:00;101100.0;;;1.9;86.5
78679;BME280;67994;59.334;13.528;2023-10-09T03:09:00;101100.0;;;2.0;86.2
78679;BME280;67994;59.334;13.528;2023-10-09T03:10:00;101100.0;;;1.9;85.6
78679;BME280;67994;59.334;13.528;2023-10-09T03:11:00;101100.0;;;1.8;85.9
78679;BME280;67994;59.334;13.528;2023-10-09T03:12:02;101100.0;;;1.8;86.0
78679;BME280;67994;59.334;13.528;2023-10-09T03:13:00;101100.0;;;1.8;85.8
78679;BME280;67994;59.334;13.528;2023-10-09T03:14:00;101100.0;;;1.8;86.0
78679;BME280;67994;59.334;13.528;2023-10-09T03:15:00;101100.0;;;1.8;85.6
78679;BME280;67994;59.334;13.528;2023-10-09T03:16:00;101100.0;;;1.7;86.1
78679;BME280;67994;59.334;13.528;2023-10-09T03:17:01;101100.0;;;1.8;85.3
78679;BME280;67994;59.334;13.528;2023-10-09T03:18:00;101100.0;;;1.7;85.0
78679;BME280;67994;59.334;13.528;2023-10-09T03:19:00;101100.0;;;1.7;85.2
78679;BME280;67994;59.334;13.528;2023-10-09T03:20:03;101100.0;;;1.7;85.2
78679;BME280;67994;59.334;13.528;2023-10-09T03:21:00;101100.0;;;1.7;86.2
78679;BME280;67994;59.334;13.528;2023-10-09T03:22:00;101100.0;;;1.8;85.6
78679;BME280;67994;59.334;13.528;2023-10-09T03:23:00;101100.0;;;1.7;85.4
78679;BME280;67994;59.334;13.528;2023-10-09T03:24:00;101100.0;;;1.6;85.5
78679;BME280;67994;59.334;13.528;2023-10-09T03:25:00;101100.0;;;1.6;86.5
78679;BME280;67994;59.334;13.528;2023-10-09T03:26:00;101100.0;;;1.6;86.8
78679;BME280;67994;59.334;13.528;2023-10-09T03:27:00;101100.0;;;1.5;87.6
78679;BME280;67994;59.334;13.528;2023-10-09T03:28:00;101100.0;;;1.5;87.3
78679;BME280;67994;59.334;13.528;2023-10-09T03:29:00;101100.0;;;1.4;87.3
78679;BME280;67994;59.334;13.528;2023-10-09T03:30:00;101100.0;;;1.5;87.5
78679;BME280;67994;59.334;13.528;2023-10-09T03:31:00;101100.0;;;1.5;87.6
78679;BME280;67994;59.334;13.528;2023-10-09T03:32:00;101100.0;;;1.5;88.0
78679;BME280;67994;59.334;13.528;2023-10-09T03:33:00;101100.0;;;1.6;87.2
78679;BME280;67994;59.334;13.528;2023-10-09T03:34:00;101100.0;;;1.5;86.9
78679;BME280;67994;59.334;13.528;2023-10-09T03:35:00;101100.0;;;1.6;86.5
78679;BME280;67994;59.334;13.528;2023-10-09T03:36:00;101100.0;;;1.6;87.0
78679;BME280;67994;59.334;13.528;2023-10-09T03:37:00;101100.0;;;1.5;86.5
78679;BME280;67994;59.334;13.528;2023-10-09T03:38:00;101100.0;;;1.5;87.6
78679;BME280;67994;59.334;13.528;2023-10-09T03:39:00;101100.0;;;1.6;87.7
78679;BME280;67994;59.334;13.528;2023-10-09T03:40:00;101100.0;;;1.5;87.3
78679;BME280;67994;59.334;13.528;2023-10-09T03:41:01;101100.0;;;1.5;87.0
78679;BME280;67994;59.334;13.528;2023-10-09T03:42:00;101100.0;;;1.4;87.0
78679;BME280;67994;59.334;13.528;2023-10-09T03:43:00;101100.0;;;1.5;87.1
78679;BME280;67994;59.334;13.528;2023-10-09T03:44:00;101100.0;;;1.5;87.4
78679;BME280;67994;59.334;13.528;2023-10-09T03:45:00;101100.0;;;1.5;87.5
78679;BME280;67994;59.334;13.528;2023-10-09T03:46:00;101100.0;;;1.5;87.2
78679;BME280;67994;59.334;13.528;2023-10-09T03:47:00;101100.0;;;1.5;86.9
78679;BME280;67994;59.334;13.528;2023-10-09T03:48:00;101100.0;;;1.5;86.5
78679;BME280;67994;59.334;13.528;2023-10-09T03:49:00;101100.0;;;1.5;86.1
78679;BME280;67994;59.334;13.528;2023-10-09T03:50:00;101100.0;;;1.6;85.8
78679;BME280;67994;59.334;13.528;2023-10-09T03:51:00;101100.0;;;1.5;85.5
78679;BME280;67994;59.334;13.528;2023-10-09T03:52:00;101100.0;;;1.5;85.8
78679;BME280;67994;59.334;13.528;2023-10-09T03:53:00;101100.0;;;1.5;85.5
78679;BME280;67994;59.334;13.528;2023-10-09T03:54:00;101100.0;;;1.4;85.7
78679;BME280;67994;59.334;13.528;2023-10-09T03:55:00;101100.0;;;1.4;85.4
78679;BME280;67994;59.334;13.528;2023-10-09T03:56:00;101100.0;;;1.4;85.3
78679;BME280;67994;59.334;13.528;2023-10-09T03:57:01;101100.0;;;1.4;85.3
78679;BME280;67994;59.334;13.528;2023-10-09T03:58:00;101100.0;;;1.4;85.5
78679;BME280;67994;59.334;13.528;2023-10-09T03:59:00;101100.0;;;1.4;85.6
78679;BME280;67994;59.334;13.528;2023-10-09T04:00:00;101100.0;;;1.4;85.9
78679;BME280;67994;59.334;13.528;2023-10-09T04:01:07;101100.0;;;1.3;85.7
78679;BME280;67994;59.334;13.528;2023-10-09T04:02:00;101100.0;;;1.4;85.5
78679;BME280;67994;59.334;13.528;2023-10-09T04:03:00;101100.0;;;1.3;86.2
78679;BME280;67994;59.334;13.528;2023-10-09T04:04:00;101100.0;;;1.3;86.2
78679;BME280;67994;59.334;13.528;2023-10-09T04:05:00;101100.0;;;1.3;86.0
78679;BME280;67994;59.334;13.528;2023-10-09T04:06:00;101100.0;;;1.4;85.8
78679;BME280;67994;59.334;13.528;2023-10-09T04:07:00;101100.0;;;1.3;85.8
78679;BME280;67994;59.334;13.528;2023-10-09T04:08:00;101100.0;;;1.4;85.7
78679;BME280;67994;59.334;13.528;2023-10-09T04:09:01;101100.0;;;1.2;85.6
78679;BME280;67994;59.334;13.528;2023-10-09T04:10:00;101100.0;;;1.3;85.5
78679;BME280;67994;59.334;13.528;2023-10-09T04:11:00;101100.0;;;1.3;86.1
78679;BME280;67994;59.334;13.528;2023-10-09T04:12:00;101100.0;;;1.3;86.8
78679;BME280;67994;59.334;13.528;2023-10-09T04:13:00;101100.0;;;1.3;87.4
78679;BME280;67994;59.334;13.528;2023-10-09T04:14:00;101100.0;;;1.5;87.0
78679;BME280;67994;59.334;13.528;2023-10-09T04:15:00;101100.0;;;1.4;86.7
78679;BME280;67994;59.334;13.528;2023-10-09T04:16:00;101100.0;;;1.5;86.5
78679;BME280;67994;59.334;13.528;2023-10-09T04:17:00;101100.0;;;1.5;87.1
78679;BME280;67994;59.334;13.528;2023-10-09T04:18:00;101100.0;;;1.5;87.3
78679;BME280;67994;59.334;13.528;2023-10-09T04:19:00;101100.0;;;1.5;87.9
78679;BME280;67994;59.334;13.528;2023-10-09T04:20:00;101100.0;;;1.4;87.4
78679;BME280;67994;59.334;13.528;2023-10-09T04:21:00;101100.0;;;1.5;87.3
78679;BME280;67994;59.334;13.528;2023-10-09T04:22:00;101100.0;;;1.5;87.4
78679;BME280;67994;59.334;13.528;2023-10-09T04:23:00;101100.0;;;1.4;87.2
78679;BME280;67994;59.334;13.528;2023-10-09T04:24:01;101100.0;;;1.4;87.2
78679;BME280;67994;59.334;13.528;2023-10-09T04:25:00;101100.0;;;1.5;87.7
78679;BME280;67994;59.334;13.528;2023-10-09T04:26:00;101100.0;;;1.5;88.1
78679;BME280;67994;59.334;13.528;2023-10-09T04:27:00;101100.0;;;1.4;87.8
78679;BME280;67994;59.334;13.528;2023-10-09T04:28:00;101100.0;;;1.4;88.0
78679;BME280;67994;59.334;13.528;2023-10-09T04:29:00;101100.0;;;1.4;88.7
78679;BME280;67994;59.334;13.528;2023-10-09T04:30:00;101100.0;;;1.4;89.3
78679;BME280;67994;59.334;13.528;2023-10-09T04:31:00;101100.0;;;1.4;89.7
78679;BME280;67994;59.334;13.528;2023-10-09T04:32:00;101100.0;;;1.4;88.1
78679;BME280;67994;59.334;13.528;2023-10-09T04:33:00;101100.0;;;1.4;88.2
78679;BME280;67994;59.334;13.528;2023-10-09T04:34:00;101100.0;;;1.3;87.9
78679;BME280;67994;59.334;13.528;2023-10-09T04:35:00;101100.0;;;1.1;87.6
78679;BME280;67994;59.334;13.528;2023-10-09T04:36:01;101100.0;;;1.3;89.2
78679;BME280;67994;59.334;13.528;2023-10-09T04:37:01;101100.0;;;1.3;89.2
78679;BME280;67994;59.334;13.528;2023-10-09T04:38:00;101100.0;;;1.3;88.7
78679;BME280;67994;59.334;13.528;2023-10-09T04:39:00;101100.0;;;1.3;89.3
78679;BME280;67994;59.334;13.528;2023-10-09T04:40:00;101100.0;;;1.3;89.5
78679;BME280;67994;59.334;13.528;2023-10-09T04:41:00;101100.0;;;1.3;89.9
78679;BME280;67994;59.334;13.528;2023-10-09T04:42:00;101100.0;;;1.3;89.4
78679;BME280;67994;59.334;13.528;2023-10-09T04:43:00;101100.0;;;1.2;89.1
78679;BME280;67994;59.334;13.528;2023-10-09T04:44:00;101100.0;;;1.4;90.1
78679;BME280;67994;59.334;13.528;2023-10-09T04:45:00;101100.0;;;1.5;90.0
78679;BME280;67994;59.334;13.528;2023-10-09T04:46:00;101100.0;;;1.5;89.1
78679;BME280;67994;59.334;13.528;2023-10-09T04:47:00;101100.0;;;1.5;89.5
78679;BME280;67994;59.334;13.528;2023-10-09T04:48:00;101100.0;;;1.5;87.8
78679;BME280;67994;59.334;13.528;2023-10-09T04:49:00;101100.0;;;1.5;87.9
78679;BME280;67994;59.334;13.528;2023-10-09T04:50:00;101100.0;;;1.3;88.2
78679;BME280;67994;59.334;13.528;2023-10-09T04:51:00;101100.0;;;1.4;89.0
78679;BME280;67994;59.334;13.528;2023-10-09T04:52:00;101100.0;;;1.4;89.4
78679;BME280;67994;59.334;13.528;2023-10-09T04:53:00;101100.0;;;1.3;88.7
78679;BME280;67994;59.334;13.528;2023-10-09T04:54:01;101100.0;;;1.4;89.1
78679;BME280;67994;59.334;13.528;2023-10-09T04:55:00;101100.0;;;1.4;90.3
78679;BME280;67994;59.334;13.528;2023-10-09T04:56:00;101100.0;;;1.3;89.8
78679;BME280;67994;59.334;13.528;2023-10-09T04:57:00;101100.0;;;1.4;89.9
78679;BME280;67994;59.334;13.528;2023-10-09T04:58:00;101100.0;;;1.4;89.6
78679;BME280;67994;59.334;13.528;2023-10-09T04:59:00;101100.0;;;1.3;89.4
78679;BME280;67994;59.334;13.528;2023-10-09T05:00:00;101100.0;;;1.3;88.6
78679;BME280;67994;59.334;13.528;2023-10-09T05:01:00;101100.0;;;1.5;89.2
78679;BME280;67994;59.334;13.528;2023-10-09T05:02:00;101100.0;;;1.4;88.8
78679;BME280;67994;59.334;13.528;2023-10-09T05:03:01;101100.0;;;1.5;89.8
78679;BME280;67994;59.334;13.528;2023-10-09T05:04:00;101100.0;;;1.4;89.7
78679;BME280;67994;59.334;13.528;2023-10-09T05:05:00;101100.0;;;1.3;88.8
78679;BME280;67994;59.334;13.528;2023-10-09T05:06:00;101100.0;;;1.4;89.9
78679;BME280;67994;59.334;13.528;2023-10-09T05:07:00;101100.0;;;1.4;90.0
78679;BME280;67994;59.334;13.528;2023-10-09T05:08:00;101100.0;;;1.5;90.5
78679;BME280;67994;59.334;13.528;2023-10-09T05:09:00;101100.0;;;1.5;90.5
78679;BME280;67994;59.334;13.528;2023-10-09T05:10:00;101100.0;;;1.4;90.3
78679;BME280;67994;59.334;13.528;2023-10-09T05:11:01;101100.0;;;1.5;90.4
78679;BME280;67994;59.334;13.528;2023-10-09T05:12:00;101100.0;;;1.6;90.9
78679;BME280;67994;59.334;13.528;2023-10-09T05:13:00;101100.0;;;1.5;89.8
78679;BME280;67994;59.334;13.528;2023-10-09T05:14:00;101100.0;;;1.6;90.3
78679;BME280;67994;59.334;13.528;2023-10-09T05:15:00;101100.0;;;1.5;89.7
78679;BME280;67994;59.334;13.528;2023-10-09T05:16:00;101100.0;;;1.5;89.4
78679;BME280;67994;59.334;13.528;2023-10-09T05:17:00;101100.0;;;1.4;89.0
78679;BME280;67994;59.334;13.528;2023-10-09T05:18:00;101100.0;;;1.3;88.8
78679;BME280;67994;59.334;13.528;2023-10-09T05:19:00;101100.0;;;1.3;88.8
78679;BME280;67994;59.334;13.528;2023-10-09T05:20:00;101100.0;;;1.2;89.0
78679;BME280;67994;59.334;13.528;2023-10-09T05:21:00;101100.0;;;1.2;89.2
78679;BME280;67994;59.334;13.528;2023-10-09T05:22:00;101100.0;;;1.1;89.3
78679;BME280;67994;59.334;13.528;2023-10-09T05:23:00;101100.0;;;1.1;89.5
78679;BME280;67994;59.334;13.528;2023-10-09T05:24:01;101100.0;;;1.1;89.5
78679;BME280;67994;59.334;13.528;2023-10-09T05:25:00;101100.0;;;1.2;89.8
78679;BME280;67994;59.334;13.528;2023-10-09T05:26:00;101100.0;;;1.2;89.5